Time;durP1;ratioP1;P1;durP2;ratioP2;P2;SDS_P1;SDS_P2;PMS_P1;PMS_P2;Temp;Humidity;BMP_temperature;BMP_pressure;BME280_temperature;BME280_humidity;BME280_pressure;Samples;Min_cycle;Max_cycle;Signal;HPM_P1;HPM_P2
2024/01/25 00:02:25;;;;;;;27.35;5.22;;;;;;;;;;5120246;27;20057;-77
2024/01/25 00:04:51;;;;;;;21.23;5.18;;;;;;;;;;5137806;27;20039;-78
2024/01/25 00:07:17;;;;;;;35.22;6.25;;;;;;;;;;5137588;27;20053;-78
2024/01/25 00:09:43;;;;;;;29.92;5.65;;;;;;;;;;5137727;27;20371;-78
2024/01/25 00:12:09;;;;;;;34.38;6.10;;;;;;;;;;5137682;27;20129;-78
2024/01/25 00:14:36;;;;;;;32.45;5.85;;;;;;;;;;5137586;27;20050;-77
2024/01/25 00:17:02;;;;;;;30.05;6.05;;;;;;;;;;5138226;27;20459;-78
2024/01/25 00:19:28;;;;;;;38.20;5.43;;;;;;;;;;5137541;27;20415;-77
2024/01/25 00:21:54;;;;;;;29.88;5.70;;;;;;;;;;5120796;27;20057;-78
2024/01/25 00:24:20;;;;;;;30.33;4.75;;;;;;;;;;5155103;27;20512;-78
2024/01/25 00:26:46;;;;;;;34.47;5.28;;;;;;;;;;5137474;27;20050;-77
2024/01/25 00:29:12;;;;;;;31.92;5.75;;;;;;;;;;5155019;27;20045;-78
2024/01/25 00:31:38;;;;;;;30.38;5.38;;;;;;;;;;5155599;27;20145;-78
2024/01/25 00:34:04;;;;;;;32.97;5.50;;;;;;;;;;5137031;27;20043;-78
2024/01/25 00:36:31;;;;;;;27.13;5.25;;;;;;;;;;5137296;27;20039;-78
2024/01/25 00:38:57;;;;;;;28.98;5.07;;;;;;;;;;5120037;27;20058;-78
2024/01/25 00:41:23;;;;;;;31.95;5.97;;;;;;;;;;5155064;27;20051;-78
2024/01/25 00:43:49;;;;;;;33.53;6.32;;;;;;;;;;5136495;27;20043;-78
2024/01/25 00:46:15;;;;;;;39.63;6.20;;;;;;;;;;5137120;27;20046;-78
2024/01/25 00:48:42;;;;;;;39.60;5.70;;;;;;;;;;5155280;27;20100;-78
2024/01/25 00:51:12;;;;;;;37.03;6.07;;;;;;;;;;5137160;27;20055;-78
2024/01/25 00:53:38;;;;;;;25.75;5.03;;;;;;;;;;5137094;27;20046;-78
2024/01/25 00:56:04;;;;;;;34.20;5.53;;;;;;;;;;5137213;27;20114;-78
2024/01/25 00:58:31;;;;;;;38.60;5.78;;;;;;;;;;5136579;27;20051;-78
2024/01/25 01:00:57;;;;;;;38.42;5.13;;;;;;;;;;5140492;27;20091;-78
2024/01/25 01:03:23;;;;;;;40.30;5.60;;;;;;;;;;5159475;27;20042;-78
2024/01/25 01:05:49;;;;;;;30.17;5.90;;;;;;;;;;5124210;27;20042;-78
2024/01/25 01:08:15;;;;;;;33.28;5.88;;;;;;;;;;5141202;27;20042;-77
2024/01/25 01:10:41;;;;;;;39.70;5.88;;;;;;;;;;5141191;27;20098;-78
2024/01/25 01:13:07;;;;;;;36.80;5.57;;;;;;;;;;5124132;27;20061;-78
2024/01/25 01:15:33;;;;;;;42.38;6.15;;;;;;;;;;5140876;27;20046;-78
2024/01/25 01:17:59;;;;;;;32.72;5.47;;;;;;;;;;5141027;27;20490;-78
2024/01/25 01:20:25;;;;;;;32.05;5.25;;;;;;;;;;5140941;27;20043;-78
2024/01/25 01:22:53;;;;;;;36.45;5.90;;;;;;;;;;5141350;27;20107;-77
2024/01/25 01:25:19;;;;;;;37.33;5.97;;;;;;;;;;5159434;27;20047;-78
2024/01/25 01:27:45;;;;;;;33.85;6.35;;;;;;;;;;5140823;27;20363;-77
2024/01/25 01:30:11;;;;;;;33.20;6.47;;;;;;;;;;5123146;27;20141;-78
2024/01/25 01:32:38;;;;;;;33.35;5.55;;;;;;;;;;5140758;27;20543;-78
2024/01/25 01:35:04;;;;;;;38.10;5.63;;;;;;;;;;5123897;27;20106;-78
2024/01/25 01:37:30;;;;;;;40.95;5.82;;;;;;;;;;5140627;27;20434;-78
2024/01/25 01:39:58;;;;;;;44.45;5.85;;;;;;;;;;5140252;27;20102;-78
2024/01/25 01:42:24;;;;;;;34.50;5.80;;;;;;;;;;5123390;27;20046;-78
2024/01/25 01:44:51;;;;;;;32.28;5.18;;;;;;;;;;5140386;27;20090;-78
2024/01/25 01:47:17;;;;;;;31.90;5.15;;;;;;;;;;5140439;27;20054;-78
2024/01/25 01:49:43;;;;;;;38.78;6.53;;;;;;;;;;5158697;27;20043;-78
2024/01/25 01:52:09;;;;;;;33.15;5.70;;;;;;;;;;5140585;27;20055;-78
2024/01/25 01:54:36;;;;;;;38.17;5.38;;;;;;;;;;5140238;27;20127;-78
2024/01/25 01:57:02;;;;;;;32.08;5.30;;;;;;;;;;5123099;27;20600;-78
2024/01/25 01:59:29;;;;;;;37.95;5.88;;;;;;;;;;5139016;27;20055;-78
2024/01/25 02:01:55;;;;;;;47.92;7.60;;;;;;;;;;5140033;27;20068;-77
2024/01/25 02:04:21;;;;;;;35.53;5.38;;;;;;;;;;5139962;27;20133;-78
2024/01/25 02:06:47;;;;;;;34.45;6.43;;;;;;;;;;5139994;27;20099;-78
2024/01/25 02:09:13;;;;;;;35.85;5.10;;;;;;;;;;5158304;27;20043;-77
2024/01/25 02:11:39;;;;;;;33.70;5.88;;;;;;;;;;5156939;27;20054;-78
2024/01/25 02:14:10;;;;;;;37.90;5.57;;;;;;;;;;5140341;27;20062;-78
2024/01/25 02:16:36;;;;;;;34.70;5.40;;;;;;;;;;5140152;27;20043;-77
2024/01/25 02:19:02;;;;;;;37.60;5.85;;;;;;;;;;5105665;27;20095;-78
2024/01/25 02:21:29;;;;;;;33.47;5.28;;;;;;;;;;5139838;27;20046;-78
2024/01/25 02:23:55;;;;;;;41.13;6.20;;;;;;;;;;5139472;27;20080;-77
2024/01/25 02:26:21;;;;;;;36.85;5.75;;;;;;;;;;5139327;27;20134;-78
2024/01/25 02:28:47;;;;;;;38.22;6.45;;;;;;;;;;5157952;27;20053;-77
2024/01/25 02:31:13;;;;;;;38.22;5.75;;;;;;;;;;5121804;27;20039;-78
2024/01/25 02:33:39;;;;;;;38.72;6.47;;;;;;;;;;5122481;27;20054;-78
2024/01/25 02:36:05;;;;;;;42.33;6.50;;;;;;;;;;5139320;27;20393;-78
2024/01/25 02:38:31;;;;;;;39.63;5.88;;;;;;;;;;5139379;27;20050;-78
2024/01/25 02:40:57;;;;;;;40.45;6.15;;;;;;;;;;5139320;27;20046;-77
2024/01/25 02:43:23;;;;;;;36.45;6.55;;;;;;;;;;5121813;27;20047;-78
2024/01/25 02:45:49;;;;;;;35.92;6.80;;;;;;;;;;5157218;27;20050;-78
2024/01/25 02:48:16;;;;;;;40.20;6.75;;;;;;;;;;5122139;27;20367;-78
2024/01/25 02:50:42;;;;;;;36.03;5.53;;;;;;;;;;5138201;27;20093;-78
2024/01/25 02:53:08;;;;;;;40.13;5.80;;;;;;;;;;5138236;27;20141;-78
2024/01/25 02:55:34;;;;;;;38.72;6.32;;;;;;;;;;5121015;27;20129;-78
2024/01/25 02:58:00;;;;;;;48.28;6.63;;;;;;;;;;5138962;27;20397;-78
2024/01/25 03:00:26;;;;;;;42.60;6.97;;;;;;;;;;5138660;27;20058;-78
2024/01/25 03:02:52;;;;;;;40.20;5.82;;;;;;;;;;5138725;27;20450;-78
2024/01/25 03:05:18;;;;;;;42.08;6.18;;;;;;;;;;5139171;27;20050;-78
2024/01/25 03:07:45;;;;;;;45.30;6.35;;;;;;;;;;5138901;27;20038;-78
2024/01/25 03:10:11;;;;;;;43.33;7.15;;;;;;;;;;5156941;27;20686;-78
2024/01/25 03:12:37;;;;;;;43.28;6.75;;;;;;;;;;5138704;27;20050;-78
2024/01/25 03:15:03;;;;;;;44.90;6.85;;;;;;;;;;5121889;27;20051;-78
2024/01/25 03:17:30;;;;;;;35.80;6.38;;;;;;;;;;5138360;27;20046;-78
2024/01/25 03:19:56;;;;;;;42.95;5.45;;;;;;;;;;5138427;27;20047;-78
2024/01/25 03:22:22;;;;;;;38.33;6.60;;;;;;;;;;5121176;27;20095;-78
2024/01/25 03:24:48;;;;;;;39.85;6.00;;;;;;;;;;5138716;27;20051;-78
2024/01/25 03:27:14;;;;;;;44.70;6.20;;;;;;;;;;5138430;27;20402;-78
2024/01/25 03:29:44;;;;;;;43.13;6.25;;;;;;;;;;5120532;27;20463;-78
2024/01/25 03:32:10;;;;;;;35.50;6.25;;;;;;;;;;5121230;27;20050;-78
2024/01/25 03:34:36;;;;;;;42.42;6.13;;;;;;;;;;5120835;27;20482;-78
2024/01/25 03:37:03;;;;;;;39.03;7.25;;;;;;;;;;5138120;27;20141;-78
2024/01/25 03:39:29;;;;;;;38.22;6.57;;;;;;;;;;5138100;27;20557;-78
2024/01/25 03:41:55;;;;;;;41.22;6.82;;;;;;;;;;5137868;27;20087;-78
2024/01/25 03:44:21;;;;;;;36.10;5.80;;;;;;;;;;5137986;27;20039;-78
2024/01/25 03:46:47;;;;;;;39.88;5.97;;;;;;;;;;5137869;27;20045;-78
2024/01/25 03:49:13;;;;;;;31.55;5.80;;;;;;;;;;5138204;27;20078;-78
2024/01/25 03:51:39;;;;;;;41.72;6.82;;;;;;;;;;5137737;27;20051;-78
2024/01/25 03:54:05;;;;;;;36.70;6.55;;;;;;;;;;5137825;27;20550;-78
2024/01/25 03:56:31;;;;;;;38.88;5.38;;;;;;;;;;5137881;27;20047;-78
2024/01/25 03:58:57;;;;;;;34.85;6.53;;;;;;;;;;5137186;27;20519;-78
2024/01/25 04:01:23;;;;;;;39.03;5.90;;;;;;;;;;5155216;27;20572;-78
2024/01/25 04:03:50;;;;;;;40.05;6.00;;;;;;;;;;5137374;27;20397;-78
2024/01/25 04:06:16;;;;;;;36.72;6.32;;;;;;;;;;5137368;27;20039;-78
2024/01/25 04:08:43;;;;;;;35.08;5.65;;;;;;;;;;5120678;27;20116;-78
2024/01/25 04:11:09;;;;;;;42.70;7.13;;;;;;;;;;5155790;27;20130;-78
2024/01/25 04:13:36;;;;;;;41.33;6.15;;;;;;;;;;5137200;27;20486;-78
2024/01/25 04:16:02;;;;;;;38.90;6.03;;;;;;;;;;5137475;27;20046;-78
2024/01/25 04:18:28;;;;;;;34.55;6.40;;;;;;;;;;5137645;27;20154;-78
2024/01/25 04:20:54;;;;;;;35.88;5.68;;;;;;;;;;5137133;27;20525;-78
2024/01/25 04:23:20;;;;;;;31.17;5.00;;;;;;;;;;5136870;27;20039;-78
2024/01/25 04:25:46;;;;;;;32.53;5.65;;;;;;;;;;5103357;27;20046;-78
2024/01/25 04:28:12;;;;;;;36.45;6.10;;;;;;;;;;5137920;27;20075;-78
2024/01/25 04:30:39;;;;;;;38.85;6.68;;;;;;;;;;5136652;27;20054;-78
2024/01/25 04:33:05;;;;;;;40.88;5.40;;;;;;;;;;5155221;27;20039;-78
2024/01/25 04:35:31;;;;;;;41.25;6.20;;;;;;;;;;5136934;27;20034;-78
2024/01/25 04:37:57;;;;;;;43.03;6.40;;;;;;;;;;5137068;27;20053;-78
2024/01/25 04:40:23;;;;;;;40.85;6.35;;;;;;;;;;5137124;27;20038;-78
2024/01/25 04:42:49;;;;;;;34.17;5.10;;;;;;;;;;5136929;27;20043;-78
2024/01/25 04:45:15;;;;;;;38.88;6.03;;;;;;;;;;5136794;27;20371;-78
2024/01/25 04:47:41;;;;;;;36.78;5.90;;;;;;;;;;5136958;27;20470;-78
2024/01/25 04:50:08;;;;;;;41.33;6.45;;;;;;;;;;5137307;27;20051;-78
2024/01/25 04:52:34;;;;;;;33.47;5.68;;;;;;;;;;5136937;27;20053;-78
2024/01/25 04:55:00;;;;;;;38.05;5.72;;;;;;;;;;5136994;27;20047;-78
2024/01/25 04:57:26;;;;;;;50.40;6.32;;;;;;;;;;5119928;27;20042;-78
2024/01/25 04:59:52;;;;;;;50.72;6.30;;;;;;;;;;5135505;27;20057;-78
2024/01/25 05:02:18;;;;;;;29.85;6.47;;;;;;;;;;5136850;27;20053;-78
2024/01/25 05:04:44;;;;;;;41.85;6.72;;;;;;;;;;5136773;27;20038;-78
2024/01/25 05:07:10;;;;;;;45.83;5.97;;;;;;;;;;5136855;27;20092;-78
2024/01/25 05:09:37;;;;;;;44.67;5.90;;;;;;;;;;5136794;27;20058;-78
2024/01/25 05:12:03;;;;;;;40.90;5.97;;;;;;;;;;5136874;27;20058;-78
2024/01/25 05:14:29;;;;;;;43.33;6.63;;;;;;;;;;5136994;27;20078;-78
2024/01/25 05:16:55;;;;;;;39.05;5.75;;;;;;;;;;5136388;27;20038;-78
2024/01/25 05:19:21;;;;;;;52.25;6.72;;;;;;;;;;5136430;27;20039;-79
2024/01/25 05:21:47;;;;;;;33.67;5.55;;;;;;;;;;5119827;27;20139;-78
2024/01/25 05:24:13;;;;;;;38.75;6.85;;;;;;;;;;5136457;27;20397;-78
2024/01/25 05:26:39;;;;;;;39.85;5.95;;;;;;;;;;5136691;27;20042;-78
2024/01/25 05:29:05;;;;;;;28.73;5.32;;;;;;;;;;5154907;27;20538;-78
2024/01/25 05:31:31;;;;;;;42.25;5.82;;;;;;;;;;5136198;27;20045;-78
2024/01/25 05:33:57;;;;;;;38.53;6.30;;;;;;;;;;5136711;27;20042;-78
2024/01/25 05:36:23;;;;;;;33.88;6.00;;;;;;;;;;5118327;27;20042;-78
2024/01/25 05:38:49;;;;;;;42.83;5.65;;;;;;;;;;5119253;27;20050;-78
2024/01/25 05:41:15;;;;;;;31.48;6.00;;;;;;;;;;5136700;27;20046;-78
2024/01/25 05:43:41;;;;;;;38.83;5.60;;;;;;;;;;5136169;27;20046;-78
2024/01/25 05:46:09;;;;;;;43.17;6.50;;;;;;;;;;5138850;27;20051;-78
2024/01/25 05:48:35;;;;;;;44.20;6.63;;;;;;;;;;5140052;27;20050;-78
2024/01/25 05:51:01;;;;;;;32.65;5.93;;;;;;;;;;5140187;27;20069;-78
2024/01/25 05:53:27;;;;;;;33.88;5.53;;;;;;;;;;5158574;27;20076;-78
2024/01/25 05:55:53;;;;;;;40.03;7.00;;;;;;;;;;5123696;27;20058;-78
2024/01/25 05:58:20;;;;;;;38.53;6.03;;;;;;;;;;5122917;27;20054;-78
2024/01/25 06:00:46;;;;;;;36.53;6.10;;;;;;;;;;5139590;27;20039;-78
2024/01/25 06:03:12;;;;;;;50.88;6.90;;;;;;;;;;5133605;27;20035;-78
2024/01/25 06:05:38;;;;;;;43.38;6.80;;;;;;;;;;5149916;27;20047;-78
2024/01/25 06:08:04;;;;;;;36.10;5.40;;;;;;;;;;5119086;27;20047;-78
2024/01/25 06:10:30;;;;;;;37.78;5.82;;;;;;;;;;5119286;27;20078;-78
2024/01/25 06:12:56;;;;;;;35.33;5.57;;;;;;;;;;5085762;27;20045;-78
2024/01/25 06:15:22;;;;;;;38.17;6.03;;;;;;;;;;5119384;27;20039;-78
2024/01/25 06:17:48;;;;;;;38.80;6.20;;;;;;;;;;5118916;27;20047;-78
2024/01/25 06:20:14;;;;;;;46.45;6.85;;;;;;;;;;5102131;27;20054;-78
2024/01/25 06:22:40;;;;;;;38.85;5.68;;;;;;;;;;5119361;27;20051;-78
2024/01/25 06:25:07;;;;;;;32.78;5.43;;;;;;;;;;5121939;27;20047;-79
2024/01/25 06:27:33;;;;;;;36.65;5.57;;;;;;;;;;5120571;27;20040;-78
2024/01/25 06:29:59;;;;;;;36.78;5.47;;;;;;;;;;5118104;27;20047;-78
2024/01/25 06:32:25;;;;;;;36.50;5.72;;;;;;;;;;5118904;27;20506;-78
2024/01/25 06:34:51;;;;;;;35.38;5.18;;;;;;;;;;5101994;27;20062;-78
2024/01/25 06:37:18;;;;;;;29.77;5.53;;;;;;;;;;5118843;27;20131;-78
2024/01/25 06:39:44;;;;;;;50.50;6.22;;;;;;;;;;5118576;27;20131;-78
2024/01/25 06:42:10;;;;;;;38.05;5.85;;;;;;;;;;5101752;27;20051;-78
2024/01/25 06:44:37;;;;;;;36.63;6.07;;;;;;;;;;5121662;27;20043;-78
2024/01/25 06:47:03;;;;;;;41.97;6.00;;;;;;;;;;5127403;27;20051;-78
2024/01/25 06:49:29;;;;;;;38.35;6.30;;;;;;;;;;5120577;27;20043;-78
2024/01/25 06:51:55;;;;;;;37.17;6.15;;;;;;;;;;5134235;27;20078;-78
2024/01/25 06:54:22;;;;;;;44.00;5.93;;;;;;;;;;5135761;27;20382;-78
2024/01/25 06:56:49;;;;;;;44.60;6.18;;;;;;;;;;5105626;27;20111;-79
2024/01/25 06:59:15;;;;;;;37.30;5.72;;;;;;;;;;5127075;27;20126;-78
2024/01/25 07:01:41;;;;;;;38.83;7.03;;;;;;;;;;5128058;27;20053;-78
2024/01/25 07:04:07;;;;;;;36.80;5.40;;;;;;;;;;5136145;27;20091;-78
2024/01/25 07:06:33;;;;;;;36.25;6.30;;;;;;;;;;5138965;27;20398;-78
2024/01/25 07:08:59;;;;;;;37.97;6.47;;;;;;;;;;5139060;27;20129;-80
2024/01/25 07:11:25;;;;;;;38.58;6.85;;;;;;;;;;5098151;27;20035;-79
2024/01/25 07:13:52;;;;;;;36.58;6.43;;;;;;;;;;5117549;27;20062;-79
2024/01/25 07:16:19;;;;;;;41.08;5.80;;;;;;;;;;5100353;27;20039;-80
2024/01/25 07:18:45;;;;;;;36.60;5.60;;;;;;;;;;5117377;27;20117;-78
2024/01/25 07:21:11;;;;;;;34.38;5.90;;;;;;;;;;5117442;27;20047;-79
2024/01/25 07:23:37;;;;;;;41.30;6.40;;;;;;;;;;5117115;27;20380;-79
2024/01/25 07:26:03;;;;;;;46.28;5.88;;;;;;;;;;5135163;27;20391;-80
2024/01/25 07:28:29;;;;;;;39.38;6.60;;;;;;;;;;5117185;27;20125;-78
2024/01/25 07:30:55;;;;;;;41.00;6.28;;;;;;;;;;5116795;27;20042;-79
2024/01/25 07:33:21;;;;;;;36.75;4.80;;;;;;;;;;5100210;27;20122;-78
2024/01/25 07:35:48;;;;;;;45.33;6.43;;;;;;;;;;5097421;27;20046;-79
2024/01/25 07:38:14;;;;;;;41.63;6.45;;;;;;;;;;5082894;27;20051;-78
2024/01/25 07:40:40;;;;;;;40.25;5.88;;;;;;;;;;5099100;27;20039;-79
2024/01/25 07:43:06;;;;;;;51.60;6.10;;;;;;;;;;5116570;27;20440;-79
2024/01/25 07:45:33;;;;;;;34.50;5.93;;;;;;;;;;5116953;27;20107;-79
2024/01/25 07:47:59;;;;;;;40.30;6.60;;;;;;;;;;5116877;27;20406;-81
2024/01/25 07:50:25;;;;;;;50.45;6.60;;;;;;;;;;5099661;27;20045;-80
2024/01/25 07:52:51;;;;;;;41.03;6.97;;;;;;;;;;5116871;27;20035;-80
2024/01/25 07:55:18;;;;;;;40.72;6.57;;;;;;;;;;5114089;27;20396;-78
2024/01/25 07:57:44;;;;;;;39.42;5.93;;;;;;;;;;5117198;27;20462;-78
2024/01/25 08:00:10;;;;;;;42.30;7.13;;;;;;;;;;5117200;27;20043;-78
2024/01/25 08:02:39;;;;;;;48.67;6.50;;;;;;;;;;5116652;27;20039;-78
2024/01/25 08:05:05;;;;;;;39.33;6.28;;;;;;;;;;5117104;27;20039;-78
2024/01/25 08:07:32;;;;;;;40.70;5.47;;;;;;;;;;5117354;27;20047;-78
2024/01/25 08:09:59;;;;;;;50.38;7.13;;;;;;;;;;5116226;27;20058;-77
2024/01/25 08:12:25;;;;;;;36.92;6.50;;;;;;;;;;5099818;27;20399;-78
2024/01/25 08:14:51;;;;;;;44.33;6.95;;;;;;;;;;5135222;27;20047;-78
2024/01/25 08:17:18;;;;;;;44.45;6.82;;;;;;;;;;5116976;28;20055;-78
2024/01/25 08:19:46;;;;;;;39.05;6.47;;;;;;;;;;5117833;27;20088;-77
2024/01/25 08:22:12;;;;;;;37.22;5.85;;;;;;;;;;5134576;27;20083;-77
2024/01/25 08:24:39;;;;;;;42.33;7.30;;;;;;;;;;5135112;27;20050;-77
2024/01/25 08:27:07;;;;;;;37.40;6.53;;;;;;;;;;5134863;27;20035;-78
2024/01/25 08:29:33;;;;;;;43.22;6.93;;;;;;;;;;5115759;27;20096;-80
2024/01/25 08:31:59;;;;;;;40.40;6.90;;;;;;;;;;5116479;27;20057;-78
2024/01/25 08:34:25;;;;;;;49.30;7.43;;;;;;;;;;5116691;27;20047;-78
2024/01/25 08:36:51;;;;;;;38.35;6.68;;;;;;;;;;5082699;27;20039;-78
2024/01/25 08:39:17;;;;;;;45.35;7.28;;;;;;;;;;5115714;28;20042;-78
2024/01/25 08:41:45;;;;;;;40.60;6.95;;;;;;;;;;5133682;27;20047;-78
2024/01/25 08:44:11;;;;;;;48.40;9.10;;;;;;;;;;5116133;27;20047;-78
2024/01/25 08:46:38;;;;;;;44.38;6.47;;;;;;;;;;5134701;27;20054;-77
2024/01/25 08:49:08;;;;;;;45.58;7.22;;;;;;;;;;5099471;27;20498;-77
2024/01/25 08:51:34;;;;;;;46.65;7.63;;;;;;;;;;5116816;28;20090;-78
2024/01/25 08:54:00;;;;;;;45.42;6.90;;;;;;;;;;5134611;27;20074;-77
2024/01/25 08:56:26;;;;;;;41.42;8.38;;;;;;;;;;5116472;28;20040;-78
2024/01/25 08:58:52;;;;;;;42.58;7.07;;;;;;;;;;5099569;28;20130;-77
2024/01/25 09:01:19;;;;;;;27.27;6.07;;;;;;;;;;5134191;28;20061;-78
2024/01/25 09:03:45;;;;;;;40.53;7.28;;;;;;;;;;5116145;28;20539;-78
2024/01/25 09:06:12;;;;;;;43.22;6.85;;;;;;;;;;5099745;28;20394;-78
2024/01/25 09:08:38;;;;;;;37.45;7.30;;;;;;;;;;5116282;28;20574;-78
2024/01/25 09:11:04;;;;;;;39.50;7.18;;;;;;;;;;5100255;28;20405;-78
2024/01/25 09:13:32;;;;;;;36.53;7.32;;;;;;;;;;5134419;28;20035;-78
2024/01/25 09:15:58;;;;;;;36.92;7.30;;;;;;;;;;5116373;28;20515;-78
2024/01/25 09:18:24;;;;;;;42.85;6.82;;;;;;;;;;5134426;28;20376;-78
2024/01/25 09:20:51;;;;;;;43.50;8.05;;;;;;;;;;5136429;27;20047;-78
2024/01/25 09:23:17;;;;;;;46.50;8.10;;;;;;;;;;5120290;27;20452;-78
2024/01/25 09:25:44;;;;;;;39.45;7.30;;;;;;;;;;5120630;27;20043;-78
2024/01/25 09:28:11;;;;;;;35.75;6.88;;;;;;;;;;5138413;27;20096;-78
2024/01/25 09:30:39;;;;;;;40.40;8.13;;;;;;;;;;5102953;27;20043;-78
2024/01/25 09:33:05;;;;;;;36.80;7.13;;;;;;;;;;5120600;27;20047;-78
2024/01/25 09:35:32;;;;;;;43.28;8.02;;;;;;;;;;5138332;27;20140;-78
2024/01/25 09:37:58;;;;;;;38.97;7.38;;;;;;;;;;5120142;27;20043;-78
2024/01/25 09:40:24;;;;;;;38.63;7.07;;;;;;;;;;5120351;27;20047;-78
2024/01/25 09:42:52;;;;;;;33.83;6.65;;;;;;;;;;5120087;27;20089;-77
2024/01/25 09:45:18;;;;;;;40.72;8.30;;;;;;;;;;5138112;27;20406;-77
2024/01/25 09:47:45;;;;;;;35.25;7.03;;;;;;;;;;5120403;27;20057;-77
2024/01/25 09:50:11;;;;;;;45.00;8.05;;;;;;;;;;5119527;27;20047;-77
2024/01/25 09:52:39;;;;;;;46.08;8.48;;;;;;;;;;5128861;27;20042;-78
2024/01/25 09:55:07;;;;;;;36.33;6.90;;;;;;;;;;5140455;27;20035;-78
2024/01/25 09:57:38;;;;;;;37.58;7.28;;;;;;;;;;5119649;27;20054;-78
2024/01/25 10:00:06;;;;;;;40.97;7.55;;;;;;;;;;5118318;27;20055;-79
2024/01/25 10:02:32;;;;;;;40.88;7.43;;;;;;;;;;5119229;27;20375;-78
2024/01/25 10:04:58;;;;;;;41.05;8.05;;;;;;;;;;5119725;27;20468;-78
2024/01/25 10:07:40;;;;;;;35.35;7.38;;;;;;;;;;5119804;27;20055;-78
2024/01/25 10:10:06;;;;;;;34.85;7.57;;;;;;;;;;5137589;27;20047;-78
2024/01/25 10:12:33;;;;;;;44.60;7.38;;;;;;;;;;5129991;27;20559;-78
2024/01/25 10:14:59;;;;;;;44.92;7.65;;;;;;;;;;5122952;27;20042;-78
2024/01/25 10:17:25;;;;;;;42.70;7.90;;;;;;;;;;5158341;27;20043;-78
2024/01/25 10:19:51;;;;;;;39.25;8.07;;;;;;;;;;5139938;27;20053;-78
2024/01/25 10:22:17;;;;;;;43.42;9.30;;;;;;;;;;5139826;27;20504;-77
2024/01/25 10:24:44;;;;;;;36.10;7.38;;;;;;;;;;5122627;27;20196;-78
2024/01/25 10:27:10;;;;;;;42.80;8.23;;;;;;;;;;5139816;27;20065;-78
2024/01/25 10:29:37;;;;;;;38.05;7.63;;;;;;;;;;5140368;27;20094;-78
2024/01/25 10:32:04;;;;;;;39.55;7.45;;;;;;;;;;5138096;27;20394;-78
2024/01/25 10:34:30;;;;;;;47.75;8.02;;;;;;;;;;5139067;27;20490;-77
2024/01/25 10:36:57;;;;;;;37.03;6.68;;;;;;;;;;5122457;27;20171;-80
2024/01/25 10:39:24;;;;;;;29.73;7.20;;;;;;;;;;5118682;27;20046;-80
2024/01/25 10:41:51;;;;;;;36.22;7.72;;;;;;;;;;5118188;27;20039;-80
2024/01/25 10:44:21;;;;;;;45.80;8.57;;;;;;;;;;5100881;27;20127;-80
2024/01/25 10:46:50;;;;;;;39.80;7.18;;;;;;;;;;5115531;27;20043;-80
2024/01/25 10:49:17;;;;;;;39.28;7.22;;;;;;;;;;5101071;27;20167;-80
2024/01/25 10:51:43;;;;;;;35.05;8.18;;;;;;;;;;5117668;27;20483;-81
2024/01/25 10:54:10;;;;;;;32.10;6.95;;;;;;;;;;5101132;27;20054;-80
2024/01/25 10:56:37;;;;;;;33.13;7.35;;;;;;;;;;5117655;27;20075;-81
2024/01/25 10:59:03;;;;;;;33.65;7.57;;;;;;;;;;5117454;27;20154;-81
2024/01/25 11:01:30;;;;;;;29.45;7.60;;;;;;;;;;5117234;27;20555;-80
2024/01/25 11:03:56;;;;;;;42.63;7.95;;;;;;;;;;5117328;27;20114;-80
2024/01/25 11:06:23;;;;;;;41.38;7.10;;;;;;;;;;5117857;27;20035;-80
2024/01/25 11:08:49;;;;;;;33.75;7.13;;;;;;;;;;5115176;27;20047;-80
2024/01/25 11:11:16;;;;;;;32.03;7.63;;;;;;;;;;5117649;27;20053;-81
2024/01/25 11:13:42;;;;;;;34.42;8.23;;;;;;;;;;5100633;27;20039;-81
2024/01/25 11:16:34;;;;;;;34.08;7.93;;;;;;;;;;5114819;27;20038;-80
2024/01/25 11:19:07;;;;;;;37.03;7.15;;;;;;;;;;5110106;27;20055;-79
2024/01/25 11:21:41;;;;;;;34.38;7.65;;;;;;;;;;5133272;27;20067;-81
2024/01/25 11:24:12;;;;;;;31.20;6.57;;;;;;;;;;5114027;27;20478;-77
2024/01/25 11:26:38;;;;;;;33.33;8.20;;;;;;;;;;5115082;27;20035;-77
2024/01/25 11:29:05;;;;;;;28.10;7.70;;;;;;;;;;5116619;27;20066;-78
2024/01/25 11:31:31;;;;;;;31.20;7.45;;;;;;;;;;5134059;27;20054;-77
2024/01/25 11:34:01;;;;;;;33.38;7.97;;;;;;;;;;5118220;27;20129;-79
2024/01/25 11:36:27;;;;;;;38.72;8.02;;;;;;;;;;5116537;27;20047;-79
2024/01/25 11:38:53;;;;;;;38.92;7.53;;;;;;;;;;5116980;27;20833;-80
2024/01/25 11:41:20;;;;;;;31.95;7.20;;;;;;;;;;5094535;27;20133;-80
2024/01/25 11:43:48;;;;;;;33.53;7.78;;;;;;;;;;5116900;27;20039;-79
2024/01/25 11:46:14;;;;;;;38.10;8.20;;;;;;;;;;5100108;27;20050;-80
2024/01/25 11:48:41;;;;;;;38.28;8.63;;;;;;;;;;5120147;27;20051;-79
2024/01/25 11:51:09;;;;;;;38.15;7.65;;;;;;;;;;5121458;27;20043;-79
2024/01/25 11:53:35;;;;;;;35.72;7.13;;;;;;;;;;5138236;27;20038;-79
2024/01/25 11:56:01;;;;;;;35.05;7.03;;;;;;;;;;5138460;27;20134;-79
2024/01/25 11:58:27;;;;;;;36.78;7.70;;;;;;;;;;5137563;27;20054;-79
2024/01/25 12:00:54;;;;;;;38.35;7.30;;;;;;;;;;5137604;27;20046;-79
2024/01/25 12:03:21;;;;;;;32.95;7.28;;;;;;;;;;5156150;27;20043;-79
2024/01/25 12:05:47;;;;;;;30.00;6.72;;;;;;;;;;5137724;27;20043;-79
2024/01/25 12:08:14;;;;;;;33.88;8.35;;;;;;;;;;5137573;27;20082;-79
2024/01/25 12:10:40;;;;;;;37.88;7.55;;;;;;;;;;5137818;27;20435;-79
2024/01/25 12:13:09;;;;;;;41.42;7.30;;;;;;;;;;5137748;27;20042;-79
2024/01/25 12:15:35;;;;;;;31.95;7.88;;;;;;;;;;5137754;27;20050;-79
2024/01/25 12:18:01;;;;;;;33.88;7.05;;;;;;;;;;5137724;27;20050;-79
2024/01/25 12:20:29;;;;;;;40.45;8.05;;;;;;;;;;5137847;27;20494;-79
2024/01/25 12:22:55;;;;;;;39.30;7.47;;;;;;;;;;5137555;27;20046;-79
2024/01/25 12:25:21;;;;;;;39.28;7.80;;;;;;;;;;5120261;27;20053;-79
2024/01/25 12:27:49;;;;;;;38.40;7.80;;;;;;;;;;5137719;27;20486;-79
2024/01/25 12:30:16;;;;;;;42.60;7.88;;;;;;;;;;5119715;27;20054;-79
2024/01/25 12:32:42;;;;;;;37.85;8.60;;;;;;;;;;5156276;27;20042;-79
2024/01/25 12:35:08;;;;;;;33.85;7.28;;;;;;;;;;5137446;27;20142;-79
2024/01/25 12:37:34;;;;;;;34.83;7.13;;;;;;;;;;5137342;27;20111;-79
2024/01/25 12:40:01;;;;;;;38.67;7.80;;;;;;;;;;5120074;27;20101;-79
2024/01/25 12:42:27;;;;;;;40.40;7.88;;;;;;;;;;5155445;27;20103;-79
2024/01/25 12:44:54;;;;;;;29.17;7.50;;;;;;;;;;5137291;27;20050;-79
2024/01/25 12:47:20;;;;;;;33.53;7.20;;;;;;;;;;5155466;27;20087;-79
2024/01/25 12:49:46;;;;;;;32.97;7.50;;;;;;;;;;5155748;27;20046;-79
2024/01/25 12:52:13;;;;;;;31.67;7.72;;;;;;;;;;5137247;27;20137;-79
2024/01/25 12:54:39;;;;;;;33.85;7.43;;;;;;;;;;5136740;27;20039;-79
2024/01/25 12:57:06;;;;;;;34.22;8.02;;;;;;;;;;5137164;27;20050;-79
2024/01/25 12:59:36;;;;;;;41.95;8.90;;;;;;;;;;5136673;27;20482;-79
2024/01/25 13:02:02;;;;;;;31.50;7.07;;;;;;;;;;5119582;27;20084;-79
2024/01/25 13:04:28;;;;;;;39.75;8.20;;;;;;;;;;5137081;27;20043;-79
2024/01/25 13:06:58;;;;;;;38.70;6.93;;;;;;;;;;5136931;27;20042;-79
2024/01/25 13:09:24;;;;;;;31.63;7.28;;;;;;;;;;5155183;27;20046;-79
2024/01/25 13:11:52;;;;;;;34.25;7.35;;;;;;;;;;5137198;27;20642;-79
2024/01/25 13:14:18;;;;;;;32.35;7.25;;;;;;;;;;5155285;27;20149;-79
2024/01/25 13:16:44;;;;;;;31.23;6.20;;;;;;;;;;5119893;27;20094;-79
2024/01/25 13:19:11;;;;;;;35.10;6.40;;;;;;;;;;5155320;27;20100;-79
2024/01/25 13:21:38;;;;;;;35.47;6.90;;;;;;;;;;5137126;27;20099;-79
2024/01/25 13:24:05;;;;;;;26.02;6.10;;;;;;;;;;5137272;27;20098;-79
2024/01/25 13:26:31;;;;;;;31.73;6.60;;;;;;;;;;5155256;27;20051;-78
2024/01/25 13:28:57;;;;;;;25.63;5.75;;;;;;;;;;5136760;27;20375;-81
2024/01/25 13:31:23;;;;;;;32.33;6.75;;;;;;;;;;5131098;28;20054;-79
2024/01/25 13:33:49;;;;;;;30.70;6.00;;;;;;;;;;5099415;28;20047;-78
2024/01/25 13:36:16;;;;;;;29.85;6.10;;;;;;;;;;5134341;28;20043;-78
2024/01/25 13:38:42;;;;;;;23.38;5.60;;;;;;;;;;5116293;28;20523;-79
2024/01/25 13:41:08;;;;;;;31.17;6.25;;;;;;;;;;5116192;28;20047;-78
2024/01/25 13:43:34;;;;;;;23.35;5.03;;;;;;;;;;5115862;28;20043;-78
2024/01/25 13:46:00;;;;;;;33.95;5.50;;;;;;;;;;5134230;28;20047;-78
2024/01/25 13:48:26;;;;;;;29.77;5.97;;;;;;;;;;5116231;28;20081;-78
2024/01/25 13:50:52;;;;;;;21.08;5.07;;;;;;;;;;5116028;28;20043;-79
2024/01/25 13:53:18;;;;;;;30.20;5.53;;;;;;;;;;5099184;28;20051;-78
2024/01/25 13:55:45;;;;;;;28.77;6.22;;;;;;;;;;5116820;28;20050;-78
2024/01/25 13:58:11;;;;;;;30.20;5.25;;;;;;;;;;5115792;28;20086;-78
2024/01/25 14:00:37;;;;;;;26.77;5.53;;;;;;;;;;5115605;28;20074;-78
2024/01/25 14:03:03;;;;;;;31.42;5.40;;;;;;;;;;5098856;28;20051;-78
2024/01/25 14:05:29;;;;;;;29.60;6.05;;;;;;;;;;5099138;28;20044;-78
2024/01/25 14:07:55;;;;;;;31.95;6.50;;;;;;;;;;5117895;27;20069;-78
2024/01/25 14:10:21;;;;;;;33.03;6.32;;;;;;;;;;5119631;27;20078;-78
2024/01/25 14:12:47;;;;;;;36.25;7.38;;;;;;;;;;5102465;27;20051;-79
2024/01/25 14:15:14;;;;;;;33.03;6.78;;;;;;;;;;5137519;27;20039;-78
2024/01/25 14:17:40;;;;;;;30.35;6.93;;;;;;;;;;5137566;27;20501;-79
2024/01/25 14:20:06;;;;;;;30.83;7.47;;;;;;;;;;5119923;27;20099;-78
2024/01/25 14:22:33;;;;;;;36.80;7.53;;;;;;;;;;5119301;27;20467;-79
2024/01/25 14:24:59;;;;;;;28.65;7.40;;;;;;;;;;5128668;27;20126;-78
2024/01/25 14:27:25;;;;;;;32.72;7.05;;;;;;;;;;5158151;27;20046;-76